sensor_id;sensor_type;location;lat;lon;timestamp;pressure;altitude;pressure_sealevel;temperature;humidity
31761;BME280;18335;51.486;7.562;2023-03-16T00:00:45;100571.53;;;2.40;100.00
31761;BME280;18335;51.486;7.562;2023-03-16T00:03:12;100579.06;;;2.35;100.00
31761;BME280;18335;51.486;7.562;2023-03-16T00:05:43;100578.94;;;2.36;100.00
31761;BME280;18335;51.486;7.562;2023-03-16T00:08:12;100577.31;;;2.34;100.00
31761;BME280;18335;51.486;7.562;2023-03-16T00:10:39;100568.50;;;2.32;100.00
31761;BME280;18335;51.486;7.562;2023-03-16T00:13:11;100567.34;;;2.36;100.00
31761;BME280;18335;51.486;7.562;2023-03-16T00:15:38;100562.06;;;2.47;100.00
31761;BME280;18335;51.486;7.562;2023-03-16T00:18:05;100567.00;;;2.40;100.00
31761;BME280;18335;51.486;7.562;2023-03-16T00:20:32;100566.34;;;2.37;100.00
31761;BME280;18335;51.486;7.562;2023-03-16T00:22:59;100572.50;;;2.39;100.00
31761;BME280;18335;51.486;7.562;2023-03-16T00:25:28;100574.13;;;2.41;100.00
31761;BME280;18335;51.486;7.562;2023-03-16T00:27:57;100570.66;;;2.39;100.00
31761;BME280;18335;51.486;7.562;2023-03-16T00:30:28;100570.34;;;2.44;100.00
31761;BME280;18335;51.486;7.562;2023-03-16T00:32:54;100565.19;;;2.41;100.00
31761;BME280;18335;51.486;7.562;2023-03-16T00:35:21;100557.72;;;2.32;100.00
31761;BME280;18335;51.486;7.562;2023-03-16T00:37:48;100554.09;;;2.33;100.00
31761;BME280;18335;51.486;7.562;2023-03-16T00:40:16;100557.41;;;2.36;100.00
31761;BME280;18335;51.486;7.562;2023-03-16T00:42:44;100555.56;;;2.37;100.00
31761;BME280;18335;51.486;7.562;2023-03-16T00:45:11;100558.16;;;2.26;100.00
31761;BME280;18335;51.486;7.562;2023-03-16T00:47:38;100557.19;;;2.27;100.00
31761;BME280;18335;51.486;7.562;2023-03-16T00:50:08;100561.38;;;2.31;100.00
31761;BME280;18335;51.486;7.562;2023-03-16T00:52:35;100555.78;;;2.21;100.00
31761;BME280;18335;51.486;7.562;2023-03-16T00:55:03;100552.97;;;2.22;100.00
31761;BME280;18335;51.486;7.562;2023-03-16T00:57:30;100552.97;;;2.22;100.00
31761;BME280;18335;51.486;7.562;2023-03-16T00:59:57;100551.25;;;2.21;100.00
31761;BME280;18335;51.486;7.562;2023-03-16T01:02:25;100554.38;;;2.28;100.00
31761;BME280;18335;51.486;7.562;2023-03-16T01:04:52;100559.22;;;2.23;100.00
31761;BME280;18335;51.486;7.562;2023-03-16T01:07:20;100553.72;;;2.24;100.00
31761;BME280;18335;51.486;7.562;2023-03-16T01:09:47;100562.28;;;2.44;100.00
31761;BME280;18335;51.486;7.562;2023-03-16T01:12:15;100568.75;;;2.41;100.00
31761;BME280;18335;51.486;7.562;2023-03-16T01:14:44;100574.78;;;2.45;100.00
31761;BME280;18335;51.486;7.562;2023-03-16T01:17:14;100566.56;;;2.46;100.00
31761;BME280;18335;51.486;7.562;2023-03-16T01:19:43;100562.47;;;2.41;100.00
31761;BME280;18335;51.486;7.562;2023-03-16T01:22:10;100568.50;;;2.32;100.00
31761;BME280;18335;51.486;7.562;2023-03-16T01:24:38;100562.25;;;2.31;100.00
31761;BME280;18335;51.486;7.562;2023-03-16T01:27:06;100555.13;;;2.30;100.00
31761;BME280;18335;51.486;7.562;2023-03-16T01:29:33;100548.03;;;2.29;100.00
31761;BME280;18335;51.486;7.562;2023-03-16T01:32:00;100542.31;;;2.34;100.00
31761;BME280;18335;51.486;7.562;2023-03-16T01:34:30;100547.59;;;2.22;100.00
31761;BME280;18335;51.486;7.562;2023-03-16T01:36:58;100538.13;;;2.30;100.00
31761;BME280;18335;51.486;7.562;2023-03-16T01:39:36;100539.72;;;2.19;100.00
31761;BME280;18335;51.486;7.562;2023-03-16T01:42:04;100528.31;;;2.29;100.00
31761;BME280;18335;51.486;7.562;2023-03-16T01:44:49;100519.19;;;2.44;100.00
31761;BME280;18335;51.486;7.562;2023-03-16T01:47:16;100512.28;;;2.40;100.00
31761;BME280;18335;51.486;7.562;2023-03-16T01:49:44;100514.66;;;2.32;100.00
31761;BME280;18335;51.486;7.562;2023-03-16T01:52:15;100513.16;;;2.15;100.00
31761;BME280;18335;51.486;7.562;2023-03-16T01:54:46;100507.97;;;2.24;100.00
31761;BME280;18335;51.486;7.562;2023-03-16T01:57:17;100507.09;;;2.37;100.00
31761;BME280;18335;51.486;7.562;2023-03-16T01:59:47;100503.75;;;2.33;100.00
31761;BME280;18335;51.486;7.562;2023-03-16T02:02:18;100500.00;;;2.23;100.00
31761;BME280;18335;51.486;7.562;2023-03-16T02:04:50;100513.13;;;2.28;100.00
31761;BME280;18335;51.486;7.562;2023-03-16T02:07:24;100510.34;;;2.29;100.00
31761;BME280;18335;51.486;7.562;2023-03-16T02:09:54;100505.28;;;2.37;100.00
31761;BME280;18335;51.486;7.562;2023-03-16T02:12:23;100497.22;;;2.37;100.00
31761;BME280;18335;51.486;7.562;2023-03-16T02:14:53;100489.47;;;2.33;100.00
31761;BME280;18335;51.486;7.562;2023-03-16T02:17:22;100484.81;;;2.22;100.00
31761;BME280;18335;51.486;7.562;2023-03-16T02:19:59;100478.06;;;2.42;100.00
31761;BME280;18335;51.486;7.562;2023-03-16T02:22:36;100479.09;;;2.39;100.00
31761;BME280;18335;51.486;7.562;2023-03-16T02:25:07;100473.50;;;2.42;100.00
31761;BME280;18335;51.486;7.562;2023-03-16T02:27:40;100477.06;;;2.43;100.00
31761;BME280;18335;51.486;7.562;2023-03-16T02:30:12;100472.88;;;2.39;100.00
31761;BME280;18335;51.486;7.562;2023-03-16T02:32:52;100472.22;;;2.35;100.00
31761;BME280;18335;51.486;7.562;2023-03-16T02:35:20;100461.25;;;2.38;100.00
31761;BME280;18335;51.486;7.562;2023-03-16T02:37:48;100467.50;;;2.39;100.00
31761;BME280;18335;51.486;7.562;2023-03-16T02:40:20;100456.16;;;2.34;100.00
31761;BME280;18335;51.486;7.562;2023-03-16T02:42:54;100457.88;;;2.09;100.00
31761;BME280;18335;51.486;7.562;2023-03-16T02:45:26;100453.03;;;2.27;100.00
31761;BME280;18335;51.486;7.562;2023-03-16T02:47:55;100453.38;;;2.22;100.00
31761;BME280;18335;51.486;7.562;2023-03-16T02:50:23;100457.25;;;2.18;100.00
31761;BME280;18335;51.486;7.562;2023-03-16T02:52:50;100446.59;;;2.30;100.00
31761;BME280;18335;51.486;7.562;2023-03-16T02:55:17;100446.56;;;2.42;100.00
31761;BME280;18335;51.486;7.562;2023-03-16T02:57:45;100440.34;;;2.42;100.00
31761;BME280;18335;51.486;7.562;2023-03-16T03:00:14;100438.41;;;2.44;100.00
31761;BME280;18335;51.486;7.562;2023-03-16T03:02:46;100435.78;;;2.42;100.00
31761;BME280;18335;51.486;7.562;2023-03-16T03:05:13;100430.41;;;2.55;100.00
31761;BME280;18335;51.486;7.562;2023-03-16T03:07:40;100440.34;;;2.42;100.00
31761;BME280;18335;51.486;7.562;2023-03-16T03:10:08;100431.50;;;2.40;100.00
31761;BME280;18335;51.486;7.562;2023-03-16T03:12:36;100435.50;;;2.34;100.00
31761;BME280;18335;51.486;7.562;2023-03-16T03:15:07;100442.06;;;2.30;100.00
31761;BME280;18335;51.486;7.562;2023-03-16T03:17:42;100437.31;;;2.34;100.00
31761;BME280;18335;51.486;7.562;2023-03-16T03:20:12;100437.44;;;2.32;100.00
31761;BME280;18335;51.486;7.562;2023-03-16T03:22:41;100442.28;;;2.27;100.00
31761;BME280;18335;51.486;7.562;2023-03-16T03:25:10;100439.06;;;2.35;100.00
31761;BME280;18335;51.486;7.562;2023-03-16T03:27:39;100427.97;;;2.01;100.00
31761;BME280;18335;51.486;7.562;2023-03-16T03:30:10;100427.97;;;2.14;100.00
31761;BME280;18335;51.486;7.562;2023-03-16T03:32:38;100422.25;;;2.44;100.00
31761;BME280;18335;51.486;7.562;2023-03-16T03:35:05;100424.81;;;2.45;100.00
31761;BME280;18335;51.486;7.562;2023-03-16T03:37:33;100417.38;;;2.49;100.00
31761;BME280;18335;51.486;7.562;2023-03-16T03:40:00;100415.47;;;2.51;100.00
31761;BME280;18335;51.486;7.562;2023-03-16T03:42:32;100418.25;;;2.49;100.00
31761;BME280;18335;51.486;7.562;2023-03-16T03:44:59;100418.25;;;2.49;100.00
31761;BME280;18335;51.486;7.562;2023-03-16T03:47:25;100409.94;;;2.52;100.00
31761;BME280;18335;51.486;7.562;2023-03-16T03:49:52;100409.72;;;2.55;100.00
31761;BME280;18335;51.486;7.562;2023-03-16T03:52:19;100413.56;;;2.64;100.00
31761;BME280;18335;51.486;7.562;2023-03-16T03:54:48;100403.97;;;2.72;100.00
31761;BME280;18335;51.486;7.562;2023-03-16T03:57:16;100411.06;;;2.86;100.00
31761;BME280;18335;51.486;7.562;2023-03-16T03:59:43;100393.16;;;3.09;100.00
31761;BME280;18335;51.486;7.562;2023-03-16T04:02:22;100407.78;;;3.17;100.00
31761;BME280;18335;51.486;7.562;2023-03-16T04:04:52;100399.59;;;3.19;100.00
31761;BME280;18335;51.486;7.562;2023-03-16T04:07:19;100400.69;;;3.16;100.00
31761;BME280;18335;51.486;7.562;2023-03-16T04:09:49;100397.69;;;3.08;100.00
31761;BME280;18335;51.486;7.562;2023-03-16T04:12:23;100395.75;;;3.10;100.00
31761;BME280;18335;51.486;7.562;2023-03-16T04:14:50;100398.09;;;3.15;100.00
31761;BME280;18335;51.486;7.562;2023-03-16T04:17:17;100389.97;;;3.04;100.00
31761;BME280;18335;51.486;7.562;2023-03-16T04:19:45;100395.34;;;3.04;100.00
31761;BME280;18335;51.486;7.562;2023-03-16T04:22:14;100390.59;;;3.07;100.00
31761;BME280;18335;51.486;7.562;2023-03-16T04:24:41;100397.00;;;3.17;100.00
31761;BME280;18335;51.486;7.562;2023-03-16T04:27:10;100389.28;;;3.13;100.00
31761;BME280;18335;51.486;7.562;2023-03-16T04:29:37;100387.13;;;3.05;100.00
31761;BME280;18335;51.486;7.562;2023-03-16T04:32:04;100384.38;;;3.18;100.00
31761;BME280;18335;51.486;7.562;2023-03-16T04:34:31;100387.50;;;3.24;100.00
31761;BME280;18335;51.486;7.562;2023-03-16T04:37:02;100389.44;;;3.22;100.00
31761;BME280;18335;51.486;7.562;2023-03-16T04:39:31;100379.22;;;3.39;100.00
31761;BME280;18335;51.486;7.562;2023-03-16T04:41:58;100376.53;;;3.50;100.00
31761;BME280;18335;51.486;7.562;2023-03-16T04:44:27;100375.16;;;3.33;100.00
31761;BME280;18335;51.486;7.562;2023-03-16T04:46:55;100372.31;;;3.34;100.00
31761;BME280;18335;51.486;7.562;2023-03-16T04:49:24;100367.88;;;3.22;100.00
31761;BME280;18335;51.486;7.562;2023-03-16T04:51:51;100370.25;;;3.38;100.00
31761;BME280;18335;51.486;7.562;2023-03-16T04:54:19;100363.91;;;3.15;100.00
31761;BME280;18335;51.486;7.562;2023-03-16T04:56:47;100359.56;;;3.25;100.00
31761;BME280;18335;51.486;7.562;2023-03-16T04:59:28;100355.19;;;3.47;100.00
31761;BME280;18335;51.486;7.562;2023-03-16T05:02:27;100349.66;;;3.37;100.00
31761;BME280;18335;51.486;7.562;2023-03-16T05:04:58;100347.50;;;3.53;100.00
31761;BME280;18335;51.486;7.562;2023-03-16T05:07:25;100342.00;;;3.55;100.00
31761;BME280;18335;51.486;7.562;2023-03-16T05:09:54;100344.31;;;3.59;100.00
31761;BME280;18335;51.486;7.562;2023-03-16T05:12:21;100341.63;;;3.70;100.00
31761;BME280;18335;51.486;7.562;2023-03-16T05:14:53;100337.47;;;3.66;100.00
31761;BME280;18335;51.486;7.562;2023-03-16T05:17:36;100338.94;;;3.70;100.00
31761;BME280;18335;51.486;7.562;2023-03-16T05:20:04;100335.66;;;3.78;100.00
31761;BME280;18335;51.486;7.562;2023-03-16T05:22:33;100330.13;;;3.79;100.00
31761;BME280;18335;51.486;7.562;2023-03-16T05:25:09;100329.06;;;3.82;100.00
31761;BME280;18335;51.486;7.562;2023-03-16T05:27:40;100321.31;;;3.88;100.00
31761;BME280;18335;51.486;7.562;2023-03-16T05:30:12;100318.25;;;3.82;100.00
31761;BME280;18335;51.486;7.562;2023-03-16T05:32:40;100312.13;;;3.91;100.00
31761;BME280;18335;51.486;7.562;2023-03-16T05:35:08;100318.75;;;3.98;100.00
31761;BME280;18335;51.486;7.562;2023-03-16T05:37:38;100323.19;;;3.88;100.00
31761;BME280;18335;51.486;7.562;2023-03-16T05:40:10;100325.38;;;4.05;100.00
31761;BME280;18335;51.486;7.562;2023-03-16T05:42:43;100321.19;;;4.01;100.00
31761;BME280;18335;51.486;7.562;2023-03-16T05:45:13;100316.56;;;4.03;100.00
31761;BME280;18335;51.486;7.562;2023-03-16T05:47:51;100325.63;;;4.02;100.00
31761;BME280;18335;51.486;7.562;2023-03-16T05:50:18;100318.63;;;4.11;100.00
31761;BME280;18335;51.486;7.562;2023-03-16T05:52:46;100320.72;;;4.07;100.00
31761;BME280;18335;51.486;7.562;2023-03-16T05:55:20;100321.19;;;4.01;100.00
31761;BME280;18335;51.486;7.562;2023-03-16T05:57:53;100324.66;;;4.14;100.00
31761;BME280;18335;51.486;7.562;2023-03-16T06:00:22;100329.91;;;4.16;100.00
31761;BME280;18335;51.486;7.562;2023-03-16T06:03:02;100335.91;;;4.30;100.00
31761;BME280;18335;51.486;7.562;2023-03-16T06:05:32;100338.50;;;4.32;100.00
31761;BME280;18335;51.486;7.562;2023-03-16T06:07:59;100347.34;;;4.34;100.00
31761;BME280;18335;51.486;7.562;2023-03-16T06:10:27;100338.38;;;4.44;100.00
31761;BME280;18335;51.486;7.562;2023-03-16T06:12:55;100348.44;;;4.54;100.00
31761;BME280;18335;51.486;7.562;2023-03-16T06:15:23;100357.31;;;4.44;100.00
31761;BME280;18335;51.486;7.562;2023-03-16T06:17:52;100349.66;;;4.50;100.00
31761;BME280;18335;51.486;7.562;2023-03-16T06:20:19;100343.53;;;4.59;100.00
31761;BME280;18335;51.486;7.562;2023-03-16T06:22:45;100338.34;;;4.67;100.00
31761;BME280;18335;51.486;7.562;2023-03-16T06:25:14;100342.78;;;4.57;100.00
31761;BME280;18335;51.486;7.562;2023-03-16T06:27:43;100339.34;;;4.55;100.00
31761;BME280;18335;51.486;7.562;2023-03-16T06:30:15;100334.91;;;4.65;100.00
31761;BME280;18335;51.486;7.562;2023-03-16T06:32:45;100342.28;;;4.63;100.00
31761;BME280;18335;51.486;7.562;2023-03-16T06:35:15;100350.84;;;4.79;100.00
31761;BME280;18335;51.486;7.562;2023-03-16T06:37:59;100343.97;;;4.86;100.00
31761;BME280;18335;51.486;7.562;2023-03-16T06:41:09;100339.28;;;4.88;100.00
31761;BME280;18335;51.486;7.562;2023-03-16T06:43:45;100338.75;;;4.94;100.00
31761;BME280;18335;51.486;7.562;2023-03-16T06:46:13;100328.09;;;4.92;100.00
31761;BME280;18335;51.486;7.562;2023-03-16T06:48:41;100327.22;;;4.92;100.00
31761;BME280;18335;51.486;7.562;2023-03-16T06:51:08;100333.19;;;5.07;100.00
31761;BME280;18335;51.486;7.562;2023-03-16T06:53:35;100333.72;;;5.00;100.00
31761;BME280;18335;51.486;7.562;2023-03-16T06:56:02;100338.41;;;4.98;100.00
31761;BME280;18335;51.486;7.562;2023-03-16T06:58:33;100340.72;;;5.03;100.00
31761;BME280;18335;51.486;7.562;2023-03-16T07:01:01;100334.19;;;5.06;100.00
31761;BME280;18335;51.486;7.562;2023-03-16T07:03:28;100333.69;;;5.32;100.00
31761;BME280;18335;51.486;7.562;2023-03-16T07:06:01;100340.25;;;5.50;100.00
31761;BME280;18335;51.486;7.562;2023-03-16T07:08:28;100331.69;;;5.45;100.00
31761;BME280;18335;51.486;7.562;2023-03-16T07:10:54;100340.59;;;5.57;100.00
31761;BME280;18335;51.486;7.562;2023-03-16T07:13:21;100338.22;;;5.84;100.00
31761;BME280;18335;51.486;7.562;2023-03-16T07:15:49;100342.97;;;5.92;100.00
31761;BME280;18335;51.486;7.562;2023-03-16T07:18:16;100344.56;;;5.94;100.00
31761;BME280;18335;51.486;7.562;2023-03-16T07:20:44;100342.59;;;5.96;100.00
31761;BME280;18335;51.486;7.562;2023-03-16T07:23:12;100341.47;;;5.99;100.00
31761;BME280;18335;51.486;7.562;2023-03-16T07:25:40;100340.22;;;6.03;100.00
31761;BME280;18335;51.486;7.562;2023-03-16T07:28:09;100346.63;;;6.02;100.00
31761;BME280;18335;51.486;7.562;2023-03-16T07:30:39;100342.13;;;6.12;100.00
31761;BME280;18335;51.486;7.562;2023-03-16T07:33:08;100347.16;;;6.26;100.00
31761;BME280;18335;51.486;7.562;2023-03-16T07:35:35;100352.84;;;6.23;100.00
31761;BME280;18335;51.486;7.562;2023-03-16T07:38:02;100354.00;;;6.30;100.00
31761;BME280;18335;51.486;7.562;2023-03-16T07:40:30;100353.56;;;6.25;100.00
31761;BME280;18335;51.486;7.562;2023-03-16T07:43:05;100358.63;;;6.09;100.00
31761;BME280;18335;51.486;7.562;2023-03-16T07:45:34;100356.56;;;6.22;100.00
31761;BME280;18335;51.486;7.562;2023-03-16T07:48:02;100358.66;;;6.19;100.00
31761;BME280;18335;51.486;7.562;2023-03-16T07:50:55;100352.50;;;6.37;100.00
31761;BME280;18335;51.486;7.562;2023-03-16T07:53:23;100360.50;;;6.39;100.00
31761;BME280;18335;51.486;7.562;2023-03-16T07:56:02;100351.94;;;6.43;100.00
31761;BME280;18335;51.486;7.562;2023-03-16T07:58:32;100353.88;;;6.62;100.00
31761;BME280;18335;51.486;7.562;2023-03-16T08:00:59;100353.78;;;6.83;100.00
31761;BME280;18335;51.486;7.562;2023-03-16T08:03:27;100353.56;;;7.14;100.00
31761;BME280;18335;51.486;7.562;2023-03-16T08:05:56;100350.25;;;6.92;100.00
31761;BME280;18335;51.486;7.562;2023-03-16T08:08:23;100349.28;;;7.12;100.00
31761;BME280;18335;51.486;7.562;2023-03-16T08:10:51;100355.13;;;7.17;100.00
31761;BME280;18335;51.486;7.562;2023-03-16T08:13:21;100346.72;;;7.30;100.00
31761;BME280;18335;51.486;7.562;2023-03-16T08:15:49;100338.13;;;7.53;100.00
31761;BME280;18335;51.486;7.562;2023-03-16T08:18:28;100339.28;;;7.70;100.00
31761;BME280;18335;51.486;7.562;2023-03-16T08:20:55;100333.84;;;7.70;100.00
31761;BME280;18335;51.486;7.562;2023-03-16T08:23:23;100328.09;;;7.82;100.00
31761;BME280;18335;51.486;7.562;2023-03-16T08:25:51;100329.69;;;7.85;100.00
31761;BME280;18335;51.486;7.562;2023-03-16T08:28:20;100329.09;;;7.82;100.00
31761;BME280;18335;51.486;7.562;2023-03-16T08:30:50;100329.91;;;8.01;100.00
31761;BME280;18335;51.486;7.562;2023-03-16T08:33:33;100321.06;;;7.90;100.00
31761;BME280;18335;51.486;7.562;2023-03-16T08:36:04;100315.06;;;7.96;100.00
31761;BME280;18335;51.486;7.562;2023-03-16T08:38:31;100320.59;;;8.04;100.00
31761;BME280;18335;51.486;7.562;2023-03-16T08:41:03;100311.94;;;7.91;98.52
31761;BME280;18335;51.486;7.562;2023-03-16T08:43:33;100319.84;;;8.21;99.68
31761;BME280;18335;51.486;7.562;2023-03-16T08:46:02;100318.50;;;8.44;100.00
31761;BME280;18335;51.486;7.562;2023-03-16T08:48:39;100321.03;;;8.46;100.00
31761;BME280;18335;51.486;7.562;2023-03-16T08:51:06;100332.59;;;8.20;98.62
31761;BME280;18335;51.486;7.562;2023-03-16T08:53:34;100322.59;;;8.11;100.00
31761;BME280;18335;51.486;7.562;2023-03-16T08:56:02;100322.78;;;8.00;100.00
31761;BME280;18335;51.486;7.562;2023-03-16T08:58:31;100324.91;;;8.06;98.65
31761;BME280;18335;51.486;7.562;2023-03-16T09:01:00;100328.22;;;8.47;94.45
31761;BME280;18335;51.486;7.562;2023-03-16T09:03:27;100321.13;;;8.36;95.46
31761;BME280;18335;51.486;7.562;2023-03-16T09:05:59;100321.63;;;8.49;97.94
31761;BME280;18335;51.486;7.562;2023-03-16T09:08:27;100324.84;;;8.89;96.20
31761;BME280;18335;51.486;7.562;2023-03-16T09:10:58;100322.56;;;8.85;97.56
31761;BME280;18335;51.486;7.562;2023-03-16T09:13:26;100328.16;;;8.56;95.00
31761;BME280;18335;51.486;7.562;2023-03-16T09:15:53;100326.38;;;8.74;96.48
31761;BME280;18335;51.486;7.562;2023-03-16T09:18:22;100327.56;;;8.62;95.33
31761;BME280;18335;51.486;7.562;2023-03-16T09:20:50;100333.59;;;8.56;95.91
31761;BME280;18335;51.486;7.562;2023-03-16T09:23:18;100330.63;;;8.50;96.27
31761;BME280;18335;51.486;7.562;2023-03-16T09:25:45;100337.16;;;8.29;96.55
31761;BME280;18335;51.486;7.562;2023-03-16T09:28:12;100332.00;;;8.36;97.51
31761;BME280;18335;51.486;7.562;2023-03-16T09:30:40;100337.19;;;8.10;95.71
31761;BME280;18335;51.486;7.562;2023-03-16T09:33:07;100343.09;;;7.96;97.17
31761;BME280;18335;51.486;7.562;2023-03-16T09:35:35;100337.38;;;7.80;100.00
31761;BME280;18335;51.486;7.562;2023-03-16T09:38:02;100339.38;;;7.88;99.95
31761;BME280;18335;51.486;7.562;2023-03-16T09:40:29;100339.75;;;8.12;100.00
31761;BME280;18335;51.486;7.562;2023-03-16T09:43:07;100339.47;;;8.15;100.00
31761;BME280;18335;51.486;7.562;2023-03-16T09:45:40;100339.56;;;8.23;100.00
31761;BME280;18335;51.486;7.562;2023-03-16T09:48:10;100344.31;;;8.21;100.00
31761;BME280;18335;51.486;7.562;2023-03-16T09:50:40;100350.28;;;8.34;100.00
31761;BME280;18335;51.486;7.562;2023-03-16T09:53:13;100348.25;;;8.46;100.00
31761;BME280;18335;51.486;7.562;2023-03-16T09:55:45;100336.56;;;8.26;99.18
31761;BME280;18335;51.486;7.562;2023-03-16T09:58:16;100339.47;;;8.52;100.00
31761;BME280;18335;51.486;7.562;2023-03-16T10:00:49;100328.56;;;8.88;100.00
31761;BME280;18335;51.486;7.562;2023-03-16T10:03:35;100325.94;;;8.69;96.93
31761;BME280;18335;51.486;7.562;2023-03-16T10:06:10;100317.16;;;8.75;96.51
31761;BME280;18335;51.486;7.562;2023-03-16T10:08:39;100306.72;;;8.80;97.44
31761;BME280;18335;51.486;7.562;2023-03-16T10:11:17;100313.19;;;9.32;99.43
31761;BME280;18335;51.486;7.562;2023-03-16T10:13:50;100324.31;;;9.57;96.77
31761;BME280;18335;51.486;7.562;2023-03-16T10:16:22;100326.72;;;9.24;91.73
31761;BME280;18335;51.486;7.562;2023-03-16T10:18:57;100322.69;;;9.46;96.31
31761;BME280;18335;51.486;7.562;2023-03-16T10:21:30;100327.41;;;9.62;96.14
31761;BME280;18335;51.486;7.562;2023-03-16T10:23:59;100329.34;;;9.69;91.64
31761;BME280;18335;51.486;7.562;2023-03-16T10:26:34;100328.88;;;9.91;94.96
31761;BME280;18335;51.486;7.562;2023-03-16T10:29:03;100315.91;;;9.50;89.80
31761;BME280;18335;51.486;7.562;2023-03-16T10:31:33;100322.91;;;9.35;88.68
31761;BME280;18335;51.486;7.562;2023-03-16T10:34:05;100316.63;;;9.52;92.92
31761;BME280;18335;51.486;7.562;2023-03-16T10:36:36;100315.28;;;9.99;93.80
31761;BME280;18335;51.486;7.562;2023-03-16T10:39:06;100312.34;;;10.19;94.26
31761;BME280;18335;51.486;7.562;2023-03-16T10:41:35;100304.69;;;9.96;90.58
31761;BME280;18335;51.486;7.562;2023-03-16T10:44:08;100303.41;;;10.09;87.30
31761;BME280;18335;51.486;7.562;2023-03-16T10:46:38;100309.50;;;10.02;93.97
31761;BME280;18335;51.486;7.562;2023-03-16T10:49:18;100300.44;;;10.20;90.27
31761;BME280;18335;51.486;7.562;2023-03-16T10:51:47;100304.91;;;10.03;92.12
31761;BME280;18335;51.486;7.562;2023-03-16T10:54:15;100303.41;;;10.09;89.96
31761;BME280;18335;51.486;7.562;2023-03-16T10:56:44;100312.53;;;10.17;93.82
31761;BME280;18335;51.486;7.562;2023-03-16T10:59:13;100303.91;;;10.30;94.98
31761;BME280;18335;51.486;7.562;2023-03-16T11:01:44;100299.25;;;10.48;89.31
31761;BME280;18335;51.486;7.562;2023-03-16T11:04:13;100287.69;;;10.62;90.66
31761;BME280;18335;51.486;7.562;2023-03-16T11:06:52;100298.91;;;10.51;82.23
31761;BME280;18335;51.486;7.562;2023-03-16T11:09:22;100287.06;;;10.34;87.84
31761;BME280;18335;51.486;7.562;2023-03-16T11:11:50;100277.00;;;10.35;88.23
31761;BME280;18335;51.486;7.562;2023-03-16T11:14:20;100263.81;;;10.64;87.14
31761;BME280;18335;51.486;7.562;2023-03-16T11:16:50;100267.47;;;10.81;93.88
31761;BME280;18335;51.486;7.562;2023-03-16T11:19:22;100270.72;;;10.92;84.78
31761;BME280;18335;51.486;7.562;2023-03-16T11:21:55;100259.47;;;11.03;91.44
31761;BME280;18335;51.486;7.562;2023-03-16T11:24:30;100249.22;;;10.97;93.07
31761;BME280;18335;51.486;7.562;2023-03-16T11:27:01;100237.59;;;10.79;86.28
31761;BME280;18335;51.486;7.562;2023-03-16T11:29:40;100235.97;;;11.10;88.76
31761;BME280;18335;51.486;7.562;2023-03-16T11:32:13;100248.94;;;11.17;90.44
31761;BME280;18335;51.486;7.562;2023-03-16T11:34:43;100241.31;;;10.62;88.61
31761;BME280;18335;51.486;7.562;2023-03-16T11:37:21;100241.31;;;10.62;92.12
31761;BME280;18335;51.486;7.562;2023-03-16T11:39:58;100234.69;;;10.31;87.32
31761;BME280;18335;51.486;7.562;2023-03-16T11:42:36;100229.97;;;10.41;93.44
31761;BME280;18335;51.486;7.562;2023-03-16T11:45:16;100216.56;;;10.64;88.76
31761;BME280;18335;51.486;7.562;2023-03-16T11:48:08;100206.06;;;10.93;91.18
31761;BME280;18335;51.486;7.562;2023-03-16T11:50:52;100203.53;;;11.07;95.45
31761;BME280;18335;51.486;7.562;2023-03-16T11:53:42;100195.25;;;10.67;88.72
31761;BME280;18335;51.486;7.562;2023-03-16T11:56:22;100198.72;;;11.18;91.79
31761;BME280;18335;51.486;7.562;2023-03-16T11:59:02;100203.69;;;11.14;81.40
31761;BME280;18335;51.486;7.562;2023-03-16T12:01:41;100205.25;;;11.17;87.86
31761;BME280;18335;51.486;7.562;2023-03-16T12:04:26;100196.50;;;11.53;81.59
31761;BME280;18335;51.486;7.562;2023-03-16T12:07:07;100190.03;;;11.71;82.34
31761;BME280;18335;51.486;7.562;2023-03-16T12:09:57;100186.41;;;11.54;86.88
31761;BME280;18335;51.486;7.562;2023-03-16T12:12:37;100180.09;;;11.53;81.10
31761;BME280;18335;51.486;7.562;2023-03-16T12:15:31;100175.16;;;11.57;88.20
31761;BME280;18335;51.486;7.562;2023-03-16T12:18:02;100175.13;;;11.65;85.60
31761;BME280;18335;51.486;7.562;2023-03-16T12:20:37;100171.38;;;11.66;83.61
31761;BME280;18335;51.486;7.562;2023-03-16T12:23:10;100155.63;;;11.68;80.09
31761;BME280;18335;51.486;7.562;2023-03-16T12:25:43;100152.44;;;11.73;81.42
31761;BME280;18335;51.486;7.562;2023-03-16T12:28:20;100132.59;;;11.62;81.90
31761;BME280;18335;51.486;7.562;2023-03-16T12:30:54;100120.16;;;11.60;78.63
31761;BME280;18335;51.486;7.562;2023-03-16T12:33:34;100126.31;;;12.09;80.61
31761;BME280;18335;51.486;7.562;2023-03-16T12:36:19;100103.84;;;11.91;73.71
31761;BME280;18335;51.486;7.562;2023-03-16T12:38:53;100119.69;;;12.03;76.32
31761;BME280;18335;51.486;7.562;2023-03-16T12:41:32;100105.78;;;11.74;73.96
31761;BME280;18335;51.486;7.562;2023-03-16T12:44:10;100091.75;;;11.85;72.45
31761;BME280;18335;51.486;7.562;2023-03-16T12:46:48;100099.66;;;12.34;78.43
31761;BME280;18335;51.486;7.562;2023-03-16T12:49:18;100086.19;;;12.32;73.64
31761;BME280;18335;51.486;7.562;2023-03-16T12:51:58;100082.72;;;12.15;71.08
31761;BME280;18335;51.486;7.562;2023-03-16T12:54:26;100084.34;;;12.25;76.18
31761;BME280;18335;51.486;7.562;2023-03-16T12:57:00;100080.63;;;12.17;73.34
31761;BME280;18335;51.486;7.562;2023-03-16T12:59:37;100088.84;;;12.17;78.31
31761;BME280;18335;51.486;7.562;2023-03-16T13:02:10;100088.78;;;11.95;74.03
31761;BME280;18335;51.486;7.562;2023-03-16T13:04:41;100082.47;;;11.94;78.29
31761;BME280;18335;51.486;7.562;2023-03-16T13:07:15;100079.75;;;11.94;69.24
31761;BME280;18335;51.486;7.562;2023-03-16T13:09:45;100071.38;;;12.18;73.68